createdAt,value
2022-12-09T00:01:18.360Z,100583.47
2022-12-09T00:03:46.342Z,100570.28
2022-12-09T00:06:17.637Z,100568.78
2022-12-09T00:08:45.112Z,100572.34
2022-12-09T00:11:12.732Z,100587.81
2022-12-09T00:13:39.778Z,100580.31
2022-12-09T00:16:13.387Z,100593.16
2022-12-09T00:18:41.244Z,100581.25
2022-12-09T00:21:32.532Z,100587.41
2022-12-09T00:24:05.009Z,100598.47
2022-12-09T00:26:33.744Z,100587.31
2022-12-09T00:29:01.077Z,100594.75
2022-12-09T00:31:34.387Z,100590.56
2022-12-09T00:34:05.007Z,100588.78
2022-12-09T00:36:32.344Z,100586.75
2022-12-09T00:39:00.397Z,100595.13
2022-12-09T00:41:28.870Z,100604.53
2022-12-09T00:43:56.637Z,100597.41
2022-12-09T00:46:24.082Z,100598.56
2022-12-09T00:48:51.357Z,100602.19
2022-12-09T00:51:21.960Z,100570.38
2022-12-09T00:53:53.857Z,100587.72
2022-12-09T00:56:23.034Z,100572.88
2022-12-09T00:58:50.178Z,100589.84
2022-12-09T01:01:17.515Z,100596.81
2022-12-09T01:03:45.021Z,100595.31
2022-12-09T01:06:21.604Z,100595.06
2022-12-09T01:08:49.325Z,100582.41
2022-12-09T01:11:23.175Z,100579.75
2022-12-09T01:13:51.245Z,100591.50
2022-12-09T01:16:27.631Z,100601.13
2022-12-09T01:18:57.576Z,100595.53
2022-12-09T01:21:25.068Z,100593.47
2022-12-09T01:23:52.500Z,100588.25
2022-12-09T01:26:20.292Z,100599.84
2022-12-09T01:28:52.847Z,100582.16
2022-12-09T01:31:23.060Z,100578.59
2022-12-09T01:33:51.283Z,100578.84
2022-12-09T01:36:22.130Z,100558.16
2022-12-09T01:38:49.487Z,100582.88
2022-12-09T01:41:18.749Z,100585.44
2022-12-09T01:43:46.564Z,100582.50
2022-12-09T01:46:14.805Z,100573.94
2022-12-09T01:48:46.459Z,100567.84
2022-12-09T01:51:18.505Z,100526.13
2022-12-09T01:53:50.099Z,100564.13
2022-12-09T01:56:26.168Z,100563.84
2022-12-09T01:58:55.993Z,100576.25
2022-12-09T02:01:23.415Z,100584.66
2022-12-09T02:03:50.574Z,100561.69
2022-12-09T02:06:18.471Z,100577.03
2022-12-09T02:08:47.635Z,100571.97
2022-12-09T02:11:37.556Z,100580.38
2022-12-09T02:14:24.376Z,100574.78
2022-12-09T02:17:06.517Z,100575.78
2022-12-09T02:19:49.432Z,100575.25
2022-12-09T02:22:24.053Z,100568.41
2022-12-09T02:24:56.185Z,100574.22
2022-12-09T02:27:33.039Z,100575.78
2022-12-09T02:30:19.519Z,100572.72
2022-12-09T02:33:07.089Z,100578.44
2022-12-09T02:36:02.836Z,100560.81
2022-12-09T02:38:33.296Z,100570.09
2022-12-09T02:41:03.642Z,100574.78
2022-12-09T02:43:42.079Z,100568.25
2022-12-09T02:46:15.174Z,100568.63
2022-12-09T02:48:52.923Z,100562.16
2022-12-09T02:51:22.613Z,100574.69
2022-12-09T02:53:53.504Z,100556.41
2022-12-09T02:56:22.781Z,100573.19
2022-12-09T02:58:51.047Z,100557.28
2022-12-09T03:01:32.583Z,100563.31
2022-12-09T03:03:59.684Z,100562.28
2022-12-09T03:06:35.751Z,100564.63
2022-12-09T03:09:13.876Z,100569.22
2022-12-09T03:11:41.996Z,100563.47
2022-12-09T03:14:19.598Z,100556.06
2022-12-09T03:17:08.097Z,100554.81
2022-12-09T03:19:45.900Z,100554.81
2022-12-09T03:22:17.985Z,100542.88
2022-12-09T03:24:53.038Z,100550.44
2022-12-09T03:27:26.055Z,100546.13
2022-12-09T03:29:53.175Z,100541.41
2022-12-09T03:32:24.537Z,100512.72
2022-12-09T03:34:57.407Z,100540.28
2022-12-09T03:37:24.528Z,100541.53
2022-12-09T03:39:53.700Z,100543.00
2022-12-09T03:42:28.967Z,100541.81
2022-12-09T03:45:01.256Z,100548.50
2022-12-09T03:47:32.744Z,100543.88
2022-12-09T03:49:59.923Z,100538.31
2022-12-09T03:52:28.855Z,100543.78
2022-12-09T03:55:01.205Z,100535.63
2022-12-09T03:57:30.307Z,100512.00
2022-12-09T04:00:02.045Z,100540.41
2022-12-09T04:02:40.383Z,100535.84
2022-12-09T04:05:08.032Z,100538.78
2022-12-09T04:07:35.920Z,100535.34
2022-12-09T04:10:03.867Z,100533.91
2022-12-09T04:12:31.549Z,100530.50
2022-12-09T04:14:58.674Z,100535.34
2022-12-09T04:17:25.702Z,100538.88
2022-12-09T04:19:53.696Z,100533.91
2022-12-09T04:22:21.268Z,100513.56
2022-12-09T04:24:48.605Z,100535.56
2022-12-09T04:27:15.799Z,100534.66
2022-12-09T04:29:42.859Z,100533.53
2022-12-09T04:32:10.209Z,100510.47
2022-12-09T04:34:37.711Z,100508.19
2022-12-09T04:37:05.139Z,100521.13
2022-12-09T04:39:32.208Z,100473.38
2022-12-09T04:41:59.387Z,100466.34
2022-12-09T04:44:26.339Z,100518.22
2022-12-09T04:46:54.149Z,100526.16
2022-12-09T04:49:21.271Z,100526.16
2022-12-09T04:51:48.499Z,100520.75
2022-12-09T04:54:15.977Z,100531.53
2022-12-09T04:56:44.491Z,100536.97
2022-12-09T04:59:11.817Z,100510.03
2022-12-09T05:01:39.202Z,100529.81
2022-12-09T05:04:06.469Z,100524.03
2022-12-09T05:06:33.993Z,100525.03
2022-12-09T05:09:01.886Z,100509.41
2022-12-09T05:11:29.138Z,100501.53
2022-12-09T05:13:56.790Z,100519.16
2022-12-09T05:16:24.121Z,100517.50
2022-12-09T05:18:51.593Z,100515.94
2022-12-09T05:21:20.834Z,100513.81
2022-12-09T05:23:48.904Z,100505.50
2022-12-09T05:26:19.278Z,100511.94
2022-12-09T05:28:46.982Z,100521.25
2022-12-09T05:31:17.090Z,100527.31
2022-12-09T05:33:45.086Z,100524.19
2022-12-09T05:36:15.057Z,100525.16
2022-12-09T05:38:42.426Z,100519.81
2022-12-09T05:41:10.344Z,100520.78
2022-12-09T05:43:39.569Z,100518.56
2022-12-09T05:46:07.798Z,100516.63
2022-12-09T05:48:36.426Z,100505.16
2022-12-09T05:51:12.399Z,100455.22
2022-12-09T05:53:39.709Z,100494.03
2022-12-09T05:56:06.855Z,100500.16
2022-12-09T05:58:35.157Z,100508.88
2022-12-09T06:01:08.829Z,100510.47
2022-12-09T06:03:36.800Z,100496.44
2022-12-09T06:06:08.432Z,100503.66
2022-12-09T06:08:36.928Z,100499.78
2022-12-09T06:11:05.249Z,100497.00
2022-12-09T06:13:32.844Z,100498.66
2022-12-09T06:16:04.516Z,100497.50
2022-12-09T06:18:32.102Z,100469.94
2022-12-09T06:20:59.672Z,100493.88
2022-12-09T06:23:27.023Z,100491.59
2022-12-09T06:25:54.322Z,100487.38
2022-12-09T06:28:21.571Z,100496.59
2022-12-09T06:30:48.940Z,100495.81
2022-12-09T06:33:45.082Z,100487.53
2022-12-09T06:36:04.247Z,100495.75
2022-12-09T06:38:31.241Z,100497.41
2022-12-09T06:40:58.336Z,100491.97
2022-12-09T06:43:25.453Z,100480.53
2022-12-09T06:45:52.574Z,100489.88
2022-12-09T06:48:19.647Z,100496.97
2022-12-09T06:50:47.284Z,100483.38
2022-12-09T06:53:14.389Z,100481.94
2022-12-09T06:55:41.600Z,100483.06
2022-12-09T06:58:08.893Z,100486.81
2022-12-09T07:00:36.834Z,100471.31
2022-12-09T07:03:04.218Z,100467.47
2022-12-09T07:05:32.387Z,100423.91
2022-12-09T07:08:00.333Z,100458.81
2022-12-09T07:10:27.975Z,100480.44
2022-12-09T07:12:55.442Z,100471.38
2022-12-09T07:15:22.889Z,100464.41
2022-12-09T07:17:49.964Z,100456.34
2022-12-09T07:20:17.977Z,100469.63
2022-12-09T07:22:45.447Z,100467.22
2022-12-09T07:25:12.906Z,100440.50
2022-12-09T07:27:40.927Z,100483.06
2022-12-09T07:30:08.862Z,100472.97
2022-12-09T07:32:36.359Z,100477.28
2022-12-09T07:35:04.034Z,100452.69
2022-12-09T07:37:31.702Z,100464.25
2022-12-09T07:39:58.980Z,100464.13
2022-12-09T07:42:26.308Z,100470.31
2022-12-09T07:44:54.644Z,100479.09
2022-12-09T07:47:22.221Z,100481.41
2022-12-09T07:49:49.859Z,100470.53
2022-12-09T07:52:16.965Z,100478.06
2022-12-09T07:54:44.016Z,100470.66
2022-12-09T07:57:11.409Z,100479.16
2022-12-09T07:59:38.563Z,100465.78
2022-12-09T08:02:06.743Z,100458.91
2022-12-09T08:04:36.547Z,100459.78
2022-12-09T08:07:04.515Z,100461.56
2022-12-09T08:09:32.144Z,100436.69
2022-12-09T08:11:59.514Z,100454.03
2022-12-09T08:14:27.060Z,100438.78
2022-12-09T08:16:54.194Z,100442.97
2022-12-09T08:19:21.998Z,100435.38
2022-12-09T08:21:54.339Z,100449.47
2022-12-09T08:24:21.981Z,100427.31
2022-12-09T08:26:51.368Z,100443.50
2022-12-09T08:29:19.269Z,100433.22
2022-12-09T08:31:46.547Z,100424.25
2022-12-09T08:34:14.703Z,100413.63
2022-12-09T08:36:42.681Z,100422.47
2022-12-09T08:39:11.629Z,100411.06
2022-12-09T08:41:40.045Z,100415.31
2022-12-09T08:44:14.444Z,100410.63
2022-12-09T08:46:47.337Z,100399.25
2022-12-09T08:49:19.098Z,100401.78
2022-12-09T08:51:48.592Z,100397.06
2022-12-09T08:54:15.960Z,100379.34
2022-12-09T08:56:47.638Z,100375.59
2022-12-09T08:59:16.178Z,100371.16
2022-12-09T09:01:44.652Z,100367.06
2022-12-09T09:04:14.585Z,100376.38
2022-12-09T09:06:44.366Z,100370.25
2022-12-09T09:09:14.152Z,100375.25
2022-12-09T09:11:43.050Z,100366.38
2022-12-09T09:14:12.380Z,100364.38
2022-12-09T09:16:42.841Z,100357.63
2022-12-09T09:19:16.590Z,100367.59
2022-12-09T09:21:43.911Z,100352.69
2022-12-09T09:24:14.323Z,100368.19
2022-12-09T09:26:43.462Z,100366.97
2022-12-09T09:29:15.316Z,100339.53
2022-12-09T09:31:43.158Z,100351.78
2022-12-09T09:34:11.348Z,100351.91
2022-12-09T09:36:40.551Z,100348.16
2022-12-09T09:39:07.741Z,100352.44
2022-12-09T09:42:05.994Z,100347.03
2022-12-09T09:44:40.371Z,100342.28
2022-12-09T09:47:44.800Z,100329.44
2022-12-09T09:50:18.198Z,100324.69
2022-12-09T09:52:46.013Z,100314.97
2022-12-09T09:55:19.262Z,100321.25
2022-12-09T09:57:48.563Z,100321.69
2022-12-09T10:00:24.787Z,100328.97
2022-12-09T10:03:25.957Z,100311.75
2022-12-09T10:05:56.423Z,100327.56
2022-12-09T10:08:47.842Z,100327.41
2022-12-09T10:11:21.023Z,100315.72
2022-12-09T10:14:10.348Z,100301.47
2022-12-09T10:16:40.697Z,100300.00
2022-12-09T10:19:19.919Z,100298.69
2022-12-09T10:21:51.316Z,100275.00
2022-12-09T10:24:28.094Z,100298.44
2022-12-09T10:27:02.181Z,100297.53
2022-12-09T10:30:07.707Z,100294.09
2022-12-09T10:32:37.506Z,100291.47
2022-12-09T10:35:23.783Z,100284.38
2022-12-09T10:37:52.691Z,100284.66
2022-12-09T10:40:46.122Z,100278.25
2022-12-09T10:43:42.026Z,100272.94
2022-12-09T10:46:17.745Z,100282.75
2022-12-09T10:48:46.877Z,100277.75
2022-12-09T10:51:16.685Z,100283.06
2022-12-09T10:53:51.698Z,100290.84
2022-12-09T10:56:25.154Z,100291.06
2022-12-09T10:59:13.875Z,100281.81
2022-12-09T11:01:52.709Z,100281.03
2022-12-09T11:04:29.451Z,100267.19
2022-12-09T11:07:01.499Z,100270.94
2022-12-09T11:09:32.677Z,100261.97
2022-12-09T11:12:02.027Z,100258.88
2022-12-09T11:14:35.796Z,100247.91
2022-12-09T11:17:22.562Z,100256.53
2022-12-09T11:20:14.359Z,100251.09
2022-12-09T11:22:44.316Z,100253.94
2022-12-09T11:25:11.789Z,100255.69
2022-12-09T11:27:57.070Z,100228.97
2022-12-09T11:30:34.848Z,100255.25
2022-12-09T11:33:04.572Z,100251.16
2022-12-09T11:35:44.874Z,100246.19
2022-12-09T11:38:27.937Z,100239.53
2022-12-09T11:41:10.059Z,100242.56
2022-12-09T11:43:48.080Z,100233.75
2022-12-09T11:46:15.165Z,100250.06
2022-12-09T11:48:49.175Z,100244.69
2022-12-09T11:51:26.034Z,100244.56
2022-12-09T11:54:03.269Z,100237.50
2022-12-09T11:56:31.165Z,100224.53
2022-12-09T11:59:13.579Z,100232.16
2022-12-09T12:02:27.479Z,100230.06
2022-12-09T12:05:00.291Z,100218.56
2022-12-09T12:08:05.766Z,100220.91
2022-12-09T12:10:54.722Z,100228.88
2022-12-09T12:13:28.386Z,100212.72
2022-12-09T12:16:10.428Z,100198.91
2022-12-09T12:18:48.388Z,100214.97
2022-12-09T12:21:56.110Z,100217.50
2022-12-09T12:24:31.722Z,100221.25
2022-12-09T12:27:21.752Z,100221.25
2022-12-09T12:30:14.762Z,100222.47
2022-12-09T12:36:20.468Z,100223.25
2022-12-09T12:39:06.728Z,100212.50
2022-12-09T12:42:08.852Z,100218.88
2022-12-09T12:45:13.204Z,100218.88
2022-12-09T12:48:07.782Z,100212.91
2022-12-09T12:50:53.135Z,100207.13
2022-12-09T12:53:39.065Z,100213.44
2022-12-09T12:56:12.823Z,100206.81
2022-12-09T12:58:45.728Z,100229.38
2022-12-09T13:01:30.886Z,100230.69
2022-12-09T13:04:24.179Z,100169.22
2022-12-09T13:07:16.266Z,100215.53
2022-12-09T13:09:58.083Z,100216.63
2022-12-09T13:12:49.280Z,100215.34
2022-12-09T13:15:18.690Z,100197.63
2022-12-09T13:17:48.376Z,100209.47
2022-12-09T13:20:28.417Z,100216.22
2022-12-09T13:23:06.651Z,100220.84
2022-12-09T13:25:47.017Z,100230.34
2022-12-09T13:28:25.155Z,100210.69
2022-12-09T13:30:57.696Z,100222.19
2022-12-09T13:33:48.342Z,100204.59
2022-12-09T13:36:40.839Z,100190.34
2022-12-09T13:39:12.253Z,100206.94
2022-12-09T13:42:00.224Z,100186.69
2022-12-09T13:44:32.645Z,100210.25
2022-12-09T13:47:16.546Z,100210.88
2022-12-09T13:49:53.880Z,100186.56
2022-12-09T13:52:46.884Z,100196.84
2022-12-09T13:55:41.599Z,100202.72
2022-12-09T13:58:35.789Z,100178.84
2022-12-09T14:01:11.845Z,100193.22
2022-12-09T14:04:10.933Z,100191.44
2022-12-09T14:06:55.146Z,100184.81
2022-12-09T14:09:47.141Z,100187.00
2022-12-09T14:12:15.219Z,100184.91
2022-12-09T14:14:44.952Z,100183.94
2022-12-09T14:17:27.238Z,100179.72
2022-12-09T14:19:56.561Z,100176.06
2022-12-09T14:22:23.571Z,100117.63
2022-12-09T14:25:14.729Z,100169.34
2022-12-09T14:28:10.926Z,100177.31
2022-12-09T14:30:40.938Z,100173.75
2022-12-09T14:33:26.639Z,100177.53
2022-12-09T14:35:58.909Z,100171.78
2022-12-09T14:39:07.741Z,100167.00
2022-12-09T14:41:37.210Z,100156.75
2022-12-09T14:44:26.180Z,100154.09
2022-12-09T14:47:14.238Z,100146.56
2022-12-09T14:49:48.907Z,100086.25
2022-12-09T14:52:27.503Z,100145.69
2022-12-09T14:54:58.589Z,100140.38
2022-12-09T14:57:30.479Z,100153.19
2022-12-09T14:59:57.647Z,100156.63
2022-12-09T15:02:25.854Z,100160.03
2022-12-09T15:04:54.456Z,100151.31
2022-12-09T15:07:33.348Z,100151.75
2022-12-09T15:10:07.065Z,100149.88
2022-12-09T15:12:40.146Z,100152.84
2022-12-09T15:15:14.314Z,100157.38
2022-12-09T15:17:49.549Z,100146.34
2022-12-09T15:20:28.511Z,100152.31
2022-12-09T15:23:28.715Z,100150.97
2022-12-09T15:25:58.685Z,100146.78
2022-12-09T15:28:30.916Z,100146.97
2022-12-09T15:31:14.148Z,100140.13
2022-12-09T15:33:43.712Z,100145.66
2022-12-09T15:36:18.750Z,100151.63
2022-12-09T15:39:03.579Z,100153.19
2022-12-09T15:42:04.269Z,100144.34
2022-12-09T15:44:33.442Z,100145.91
2022-12-09T15:47:08.478Z,100147.03
2022-12-09T15:49:44.961Z,100146.78
2022-12-09T15:52:13.481Z,100136.59
2022-12-09T15:54:44.060Z,100138.38
2022-12-09T15:57:14.415Z,100137.69
2022-12-09T15:59:44.071Z,100121.53
2022-12-09T16:02:19.383Z,100132.38
2022-12-09T16:04:48.890Z,100132.81
2022-12-09T16:07:20.003Z,100141.75
2022-12-09T16:10:06.961Z,100127.25
2022-12-09T16:12:34.635Z,100136.53
2022-12-09T16:15:02.282Z,100139.97
2022-12-09T16:17:34.542Z,100140.09
2022-12-09T16:20:22.635Z,100141.75
2022-12-09T16:22:50.615Z,100139.31
2022-12-09T16:25:23.941Z,100128.13
2022-12-09T16:27:57.943Z,100119.31
2022-12-09T16:30:28.721Z,100118.00
2022-12-09T16:32:58.454Z,100111.28
2022-12-09T16:36:04.946Z,100110.03
2022-12-09T16:38:34.624Z,100122.50
2022-12-09T16:41:05.374Z,100108.19
2022-12-09T16:43:33.115Z,100115.69
2022-12-09T16:46:28.722Z,100130.81
2022-12-09T16:49:04.417Z,100114.50
2022-12-09T16:51:32.112Z,100128.94
2022-12-09T16:54:00.410Z,100101.41
2022-12-09T16:56:31.883Z,100116.72
2022-12-09T16:58:59.887Z,100124.22
2022-12-09T17:01:31.927Z,100117.88
2022-12-09T17:04:05.578Z,100117.44
2022-12-09T17:06:32.615Z,100112.56
2022-12-09T17:08:59.704Z,100101.59
2022-12-09T17:11:26.747Z,100109.50
2022-12-09T17:13:53.817Z,100095.81
2022-12-09T17:16:22.373Z,100109.47
2022-12-09T17:18:50.182Z,100112.53
2022-12-09T17:21:17.459Z,100123.13
2022-12-09T17:23:44.687Z,100107.44
2022-12-09T17:26:14.603Z,100121.16
2022-12-09T17:28:42.954Z,100115.41
2022-12-09T17:31:12.559Z,100101.41
2022-12-09T17:33:39.788Z,100113.22
2022-12-09T17:36:07.675Z,100098.94
2022-12-09T17:38:35.460Z,100082.94
2022-12-09T17:41:07.807Z,100101.75
2022-12-09T17:43:35.378Z,100082.53
2022-12-09T17:46:03.896Z,100088.69
2022-12-09T17:48:33.439Z,100093.41
2022-12-09T17:51:06.253Z,100043.56
2022-12-09T17:53:39.135Z,100098.03
2022-12-09T17:56:12.606Z,100090.16
2022-12-09T17:58:39.974Z,100091.34
2022-12-09T18:01:14.161Z,100100.44
2022-12-09T18:03:55.473Z,100093.59
2022-12-09T18:06:23.788Z,100098.88
2022-12-09T18:08:50.885Z,100074.59
2022-12-09T18:11:18.076Z,100086.94
2022-12-09T18:13:45.239Z,100094.56
2022-12-09T18:16:13.446Z,100084.13
2022-12-09T18:18:41.420Z,100060.22
2022-12-09T18:21:15.365Z,100076.59
2022-12-09T18:23:43.294Z,100062.56
2022-12-09T18:26:12.980Z,100063.66
2022-12-09T18:28:40.952Z,100067.72
2022-12-09T18:31:14.190Z,100069.28
2022-12-09T18:33:41.923Z,100063.41
2022-12-09T18:36:14.683Z,100057.53
2022-12-09T18:38:42.614Z,100059.22
2022-12-09T18:41:18.927Z,100048.09
2022-12-09T18:43:48.052Z,100061.84
2022-12-09T18:46:21.366Z,100063.72
2022-12-09T18:48:59.182Z,100037.28
2022-12-09T18:51:27.427Z,100011.97
2022-12-09T18:53:54.792Z,100050.63
2022-12-09T18:56:21.819Z,100035.75
2022-12-09T19:01:41.206Z,100034.34
2022-12-09T19:04:16.152Z,100031.78
2022-12-09T19:06:45.343Z,100027.16
2022-12-09T19:09:22.099Z,100034.06
2022-12-09T19:11:50.605Z,99969.47
2022-12-09T19:14:19.533Z,100025.44
2022-12-09T19:16:46.769Z,99996.06
2022-12-09T19:19:16.968Z,100016.88
2022-12-09T19:21:44.927Z,100013.38
2022-12-09T19:24:20.740Z,100007.63
2022-12-09T19:26:48.319Z,100009.69
2022-12-09T19:29:15.993Z,100012.25
2022-12-09T19:31:46.023Z,100010.66
2022-12-09T19:34:30.236Z,99960.31
2022-12-09T19:36:59.573Z,100001.78
2022-12-09T19:39:34.097Z,100020.28
2022-12-09T19:42:02.025Z,100017.72
2022-12-09T19:45:00.803Z,100005.13
2022-12-09T19:47:16.330Z,99996.09
2022-12-09T19:49:44.540Z,100013.06
2022-12-09T19:52:12.371Z,100003.06
2022-12-09T19:54:39.627Z,100000.63
2022-12-09T19:57:06.783Z,99985.34
2022-12-09T19:59:35.279Z,100002.28
2022-12-09T20:02:02.436Z,99998.47
2022-12-09T20:07:18.350Z,99980.91
2022-12-09T20:09:45.844Z,100014.78
2022-12-09T20:12:13.241Z,100007.75
2022-12-09T20:14:40.444Z,100017.72
2022-12-09T20:17:08.007Z,100008.94
2022-12-09T20:19:36.869Z,100007.66
2022-12-09T20:22:04.234Z,100008.53
2022-12-09T20:24:31.290Z,99994.41
2022-12-09T20:26:58.527Z,100002.44
2022-12-09T20:29:25.598Z,99996.78
2022-12-09T20:31:53.240Z,100005.88
2022-12-09T20:34:20.319Z,100014.19
2022-12-09T20:36:48.582Z,100002.03
2022-12-09T20:39:18.695Z,100023.09
2022-12-09T20:41:46.738Z,99988.50
2022-12-09T20:44:15.378Z,100016.06
2022-12-09T20:46:46.409Z,100004.78
2022-12-09T20:49:13.445Z,100009.31
2022-12-09T20:51:41.446Z,99995.97
2022-12-09T20:54:11.062Z,99994.50
2022-12-09T20:56:38.277Z,100005.72
2022-12-09T20:59:06.742Z,100012.72
2022-12-09T21:01:35.589Z,100002.63
2022-12-09T21:04:06.232Z,100005.09
2022-12-09T21:06:38.861Z,99991.38
2022-12-09T21:09:12.479Z,100000.16
2022-12-09T21:11:39.695Z,100000.47
2022-12-09T21:14:07.303Z,99995.38
2022-12-09T21:16:39.010Z,99946.19
2022-12-09T21:19:07.506Z,99963.44
2022-12-09T21:21:37.112Z,100005.19
2022-12-09T21:24:04.366Z,100001.06
2022-12-09T21:26:31.542Z,100000.88
2022-12-09T21:29:00.778Z,99994.69
2022-12-09T21:31:34.329Z,99989.09
2022-12-09T21:34:03.712Z,99985.09
2022-12-09T21:36:34.160Z,99987.63
2022-12-09T21:39:01.437Z,99975.34
2022-12-09T21:41:31.060Z,99970.06
2022-12-09T21:43:58.222Z,99975.19
2022-12-09T21:46:28.312Z,99971.19
2022-12-09T21:49:03.281Z,99969.72
2022-12-09T21:51:31.212Z,99956.97
2022-12-09T21:53:58.168Z,99952.47
2022-12-09T21:56:30.781Z,99944.63
2022-12-09T21:58:59.108Z,99949.34
2022-12-09T22:01:32.228Z,99950.34
2022-12-09T22:04:00.589Z,99942.09
2022-12-09T22:06:28.579Z,99941.00
2022-12-09T22:08:57.514Z,99933.19
2022-12-09T22:11:27.106Z,99924.50
2022-12-09T22:13:57.950Z,99930.75
2022-12-09T22:16:28.492Z,99931.72
2022-12-09T22:18:57.892Z,99931.41
2022-12-09T22:21:28.256Z,99932.69
2022-12-09T22:23:58.600Z,99933.31
2022-12-09T22:26:26.205Z,99921.16
2022-12-09T22:28:54.057Z,99936.13
2022-12-09T22:31:31.157Z,99937.31
2022-12-09T22:34:06.164Z,99939.78
2022-12-09T22:36:34.671Z,99936.53
2022-12-09T22:39:01.669Z,99948.78
2022-12-09T22:41:29.978Z,99946.25
2022-12-09T22:44:00.850Z,99943.41
2022-12-09T22:46:33.920Z,99947.59
2022-12-09T22:49:05.226Z,99939.97
2022-12-09T22:51:35.425Z,99930.78
2022-12-09T22:54:08.490Z,99937.16
2022-12-09T22:56:40.328Z,99935.09
2022-12-09T22:59:07.690Z,99936.16
2022-12-09T23:01:37.566Z,99923.91
2022-12-09T23:04:16.477Z,99937.44
2022-12-09T23:06:43.575Z,99912.94
2022-12-09T23:09:15.979Z,99915.47
2022-12-09T23:11:43.174Z,99947.13
2022-12-09T23:14:10.318Z,99921.47
2022-12-09T23:16:37.439Z,99940.75
2022-12-09T23:19:04.409Z,99944.28
2022-12-09T23:21:34.995Z,99927.72
2022-12-09T23:24:05.740Z,99931.53
2022-12-09T23:26:37.007Z,99943.78
2022-12-09T23:29:05.439Z,99915.69
2022-12-09T23:31:35.117Z,99943.41
2022-12-09T23:34:03.940Z,99951.25
2022-12-09T23:36:35.119Z,99949.59
2022-12-09T23:39:03.994Z,99930.47
2022-12-09T23:41:31.379Z,99958.78
2022-12-09T23:43:58.687Z,99951.53
2022-12-09T23:46:27.774Z,99955.75
2022-12-09T23:48:55.938Z,99946.56
2022-12-09T23:51:29.884Z,99944.66
2022-12-09T23:53:59.938Z,99925.31
2022-12-09T23:56:30.654Z,99934.41
2022-12-09T23:59:00.080Z,99951.66
